createdAt,value
2023-08-15T00:01:03.838Z,101328.84
2023-08-15T00:03:31.925Z,101332.09
2023-08-15T00:05:59.996Z,101327.56
2023-08-15T00:08:27.970Z,101340.38
2023-08-15T00:10:57.339Z,101335.09
2023-08-15T00:13:25.386Z,101334.66
2023-08-15T00:15:53.317Z,101338.22
2023-08-15T00:18:21.238Z,101340.38
2023-08-15T00:20:49.485Z,101345.88
2023-08-15T00:23:17.960Z,101346.72
2023-08-15T00:25:45.933Z,101345.88
2023-08-15T00:28:15.219Z,101354.78
2023-08-15T00:30:44.012Z,101350.19
2023-08-15T00:33:11.970Z,101339.31
2023-08-15T00:35:39.937Z,101350.72
2023-08-15T00:38:07.867Z,101354.28
2023-08-15T00:40:35.833Z,101354.41
2023-08-15T00:43:04.245Z,101354.59
2023-08-15T00:45:33.559Z,101353.84
2023-08-15T00:48:01.557Z,101353.09
2023-08-15T00:50:29.477Z,101356.72
2023-08-15T00:52:57.474Z,101353.28
2023-08-15T00:55:25.412Z,101350.69
2023-08-15T00:57:53.321Z,101358.66
2023-08-15T01:00:21.246Z,101351.47
2023-08-15T01:02:50.561Z,101346.38
2023-08-15T01:05:18.577Z,101353.28
2023-08-15T01:07:46.700Z,101354.91
2023-08-15T01:10:14.704Z,101356.66
2023-08-15T01:12:45.342Z,101352.44
2023-08-15T01:15:16.016Z,101361.38
2023-08-15T01:17:46.958Z,101357.91
2023-08-15T01:20:18.340Z,101359.75
2023-08-15T01:22:46.660Z,101365.34
2023-08-15T01:25:15.991Z,101349.94
2023-08-15T01:27:43.927Z,101362.59
2023-08-15T01:30:12.570Z,101359.28
2023-08-15T01:32:45.039Z,101362.06
2023-08-15T01:35:16.132Z,101364.78
2023-08-15T01:37:45.504Z,101364.78
2023-08-15T01:40:13.432Z,101367.34
2023-08-15T01:42:42.750Z,101375.44
2023-08-15T01:45:11.482Z,101377.06
2023-08-15T01:47:39.459Z,101362.72
2023-08-15T01:50:08.854Z,101370.69
2023-08-15T01:52:37.104Z,101365.22
2023-08-15T01:55:05.328Z,101367.34
2023-08-15T01:57:33.248Z,101364.84
2023-08-15T02:00:02.559Z,101362.28
2023-08-15T02:02:30.592Z,101352.69
2023-08-15T02:05:03.121Z,101362.78
2023-08-15T02:07:31.133Z,101364.25
2023-08-15T02:09:59.077Z,101371.50
2023-08-15T02:12:27.023Z,101363.59
2023-08-15T02:14:54.935Z,101364.66
2023-08-15T02:17:24.221Z,101359.28
2023-08-15T02:19:52.675Z,101360.47
2023-08-15T02:22:20.541Z,101356.41
2023-08-15T02:24:48.764Z,101355.84
2023-08-15T02:27:16.746Z,101363.16
2023-08-15T02:29:44.946Z,101367.59
2023-08-15T02:32:12.861Z,101362.28
2023-08-15T02:34:42.180Z,101369.28
2023-08-15T02:37:10.092Z,101361.16
2023-08-15T02:39:37.982Z,101366.53
2023-08-15T02:42:06.020Z,101360.16
2023-08-15T02:44:34.310Z,101363.06
2023-08-15T02:47:02.292Z,101356.06
2023-08-15T02:49:30.273Z,101357.59
2023-08-15T02:51:59.580Z,101361.97
2023-08-15T02:54:27.537Z,101365.34
2023-08-15T02:56:55.514Z,101355.75
2023-08-15T02:59:23.413Z,101368.03
2023-08-15T03:01:51.418Z,101347.78
2023-08-15T03:04:19.797Z,101366.97
2023-08-15T03:06:48.196Z,101365.13
2023-08-15T03:09:18.099Z,101361.78
2023-08-15T03:11:46.008Z,101360.91
2023-08-15T03:14:13.910Z,101372.66
2023-08-15T03:16:41.804Z,101368.13
2023-08-15T03:19:09.759Z,101375.44
2023-08-15T03:21:37.697Z,101374.69
2023-08-15T03:24:05.971Z,101374.91
2023-08-15T03:26:35.293Z,101378.53
2023-08-15T03:29:03.227Z,101372.50
2023-08-15T03:31:32.517Z,101382.50
2023-08-15T03:34:00.478Z,101375.56
2023-08-15T03:36:28.426Z,101382.13
2023-08-15T03:38:56.503Z,101379.53
2023-08-15T03:41:24.426Z,101380.47
2023-08-15T03:43:53.705Z,101370.78
2023-08-15T03:46:21.671Z,101376.09
2023-08-15T03:48:49.634Z,101373.47
2023-08-15T03:51:38.167Z,101374.44
2023-08-15T03:54:05.789Z,101373.59
2023-08-15T03:56:33.712Z,101372.63
2023-08-15T03:59:03.013Z,101378.56
2023-08-15T04:01:31.267Z,101377.03
2023-08-15T04:03:59.399Z,101379.94
2023-08-15T04:06:27.313Z,101381.88
2023-08-15T04:08:55.238Z,101381.19
2023-08-15T04:11:23.222Z,101380.59
2023-08-15T04:13:51.175Z,101383.69
2023-08-15T04:16:20.499Z,101381.28
2023-08-15T04:18:48.459Z,101387.53
2023-08-15T04:21:16.381Z,101381.19
2023-08-15T04:23:44.284Z,101389.25
2023-08-15T04:26:12.181Z,101384.97
2023-08-15T04:28:40.190Z,101395.50
2023-08-15T04:31:08.144Z,101390.34
2023-08-15T04:33:37.520Z,101388.41
2023-08-15T04:36:05.667Z,101388.31
2023-08-15T04:38:33.580Z,101396.19
2023-08-15T04:41:01.534Z,101394.72
2023-08-15T04:43:29.482Z,101406.25
2023-08-15T04:45:57.479Z,101403.47
2023-08-15T04:48:25.468Z,101407.78
2023-08-15T04:50:54.827Z,101412.09
2023-08-15T04:53:22.737Z,101412.22
2023-08-15T04:55:50.700Z,101422.75
2023-08-15T04:58:18.630Z,101418.06
2023-08-15T05:00:46.800Z,101428.72
2023-08-15T05:03:14.791Z,101418.81
2023-08-15T05:05:42.722Z,101425.91
2023-08-15T05:08:13.332Z,101427.84
2023-08-15T05:10:41.394Z,101425.16
2023-08-15T05:13:09.693Z,101433.16
2023-08-15T05:15:37.734Z,101430.34
2023-08-15T05:18:06.646Z,101437.56
2023-08-15T05:20:35.305Z,101439.59
2023-08-15T05:23:03.252Z,101438.72
2023-08-15T05:25:32.561Z,101443.22
2023-08-15T05:28:00.540Z,101449.59
2023-08-15T05:30:28.565Z,101459.25
2023-08-15T05:32:56.545Z,101457.38
2023-08-15T05:35:24.519Z,101469.66
2023-08-15T05:37:52.431Z,101475.03
2023-08-15T05:40:20.394Z,101466.66
2023-08-15T05:42:49.811Z,101463.97
2023-08-15T05:45:17.702Z,101472.53
2023-08-15T05:47:46.081Z,101467.22
2023-08-15T05:50:14.038Z,101476.56
2023-08-15T05:52:42.045Z,101482.59
2023-08-15T05:55:10.411Z,101485.97
2023-08-15T05:57:38.434Z,101489.25
2023-08-15T06:00:11.678Z,101484.53
2023-08-15T06:02:41.178Z,101492.41
2023-08-15T06:05:09.611Z,101494.69
2023-08-15T06:07:37.600Z,101497.09
2023-08-15T06:10:06.181Z,101498.63
2023-08-15T06:12:34.244Z,101504.56
2023-08-15T06:15:02.312Z,101514.19
2023-08-15T06:17:31.739Z,101510.41
2023-08-15T06:19:59.725Z,101518.41
2023-08-15T06:22:28.103Z,101521.00
2023-08-15T06:24:56.098Z,101516.25
2023-08-15T06:27:24.071Z,101530.28
2023-08-15T06:29:52.159Z,101535.94
2023-08-15T06:32:39.250Z,101533.22
2023-08-15T06:35:08.238Z,101537.16
2023-08-15T06:37:36.215Z,101542.13
2023-08-15T06:40:05.623Z,101533.94
2023-08-15T06:42:33.763Z,101549.50
2023-08-15T06:45:07.463Z,101541.22
2023-08-15T06:47:35.604Z,101552.13
2023-08-15T06:50:05.669Z,101553.53
2023-08-15T06:52:33.874Z,101560.34
2023-08-15T06:55:04.881Z,101564.25
2023-08-15T06:57:33.512Z,101559.28
2023-08-15T07:00:01.705Z,101569.44
2023-08-15T07:02:29.745Z,101574.84
2023-08-15T07:04:57.986Z,101575.22
2023-08-15T07:07:27.623Z,101581.94
2023-08-15T07:09:55.656Z,101573.41
2023-08-15T07:12:23.942Z,101574.78
2023-08-15T07:14:52.320Z,101579.78
2023-08-15T07:17:20.363Z,101586.75
2023-08-15T07:19:48.537Z,101589.47
2023-08-15T07:22:16.921Z,101584.06
2023-08-15T07:24:46.809Z,101598.97
2023-08-15T07:27:14.795Z,101599.72
2023-08-15T07:29:43.142Z,101594.22
2023-08-15T07:32:13.377Z,101590.88
2023-08-15T07:34:42.031Z,101607.81
2023-08-15T07:37:10.011Z,101612.69
2023-08-15T07:39:38.046Z,101610.19
2023-08-15T07:42:07.687Z,101608.91
2023-08-15T07:44:35.623Z,101614.50
2023-08-15T07:47:03.659Z,101610.31
2023-08-15T07:49:33.711Z,101618.28
2023-08-15T07:52:01.718Z,101618.84
2023-08-15T07:54:29.660Z,101624.66
2023-08-15T07:59:26.963Z,101626.34
2023-08-15T08:01:55.164Z,101637.97
2023-08-15T08:04:23.423Z,101622.56
2023-08-15T08:06:52.112Z,101634.75
2023-08-15T08:09:20.059Z,101635.16
2023-08-15T08:11:49.572Z,101631.28
2023-08-15T08:14:17.487Z,101632.34
2023-08-15T08:16:46.999Z,101633.75
2023-08-15T08:19:15.761Z,101624.53
2023-08-15T08:21:43.957Z,101628.72
2023-08-15T08:24:12.271Z,101641.88
2023-08-15T08:26:40.385Z,101644.69
2023-08-15T08:29:08.823Z,101651.34
2023-08-15T08:31:38.904Z,101656.75
2023-08-15T08:34:14.828Z,101652.91
2023-08-15T08:36:43.054Z,101654.78
2023-08-15T08:39:21.600Z,101648.97
2023-08-15T08:41:58.235Z,101668.03
2023-08-15T08:44:26.435Z,101674.16
2023-08-15T08:46:54.562Z,101674.50
2023-08-15T08:49:24.055Z,101667.91
2023-08-15T08:51:52.400Z,101666.41
2023-08-15T08:54:26.696Z,101669.38
2023-08-15T08:57:05.512Z,101661.13
2023-08-15T08:59:33.876Z,101669.41
2023-08-15T09:02:01.883Z,101676.94
2023-08-15T09:04:32.258Z,101677.94
2023-08-15T09:07:00.355Z,101672.16
2023-08-15T09:09:28.416Z,101678.25
2023-08-15T09:11:56.621Z,101680.88
2023-08-15T09:14:24.887Z,101673.56
2023-08-15T09:16:52.894Z,101680.94
2023-08-15T09:19:20.895Z,101684.69
2023-08-15T09:21:51.311Z,101688.97
2023-08-15T09:24:19.407Z,101689.78
2023-08-15T09:26:47.392Z,101690.66
2023-08-15T09:29:15.571Z,101694.47
2023-08-15T09:31:44.744Z,101686.34
2023-08-15T09:34:12.857Z,101681.81
2023-08-15T09:36:41.126Z,101697.56
2023-08-15T09:39:10.639Z,101694.66
2023-08-15T09:41:42.324Z,101688.16
2023-08-15T09:44:10.423Z,101693.72
2023-08-15T09:46:39.276Z,101704.16
2023-08-15T09:49:07.570Z,101702.47
2023-08-15T09:51:35.636Z,101703.94
2023-08-15T09:54:03.707Z,101705.38
2023-08-15T09:56:33.306Z,101705.00
2023-08-15T09:59:01.392Z,101711.28
2023-08-15T10:01:29.662Z,101713.88
2023-08-15T10:03:57.634Z,101718.84
2023-08-15T10:06:26.083Z,101719.56
2023-08-15T10:08:57.143Z,101704.06
2023-08-15T10:11:25.428Z,101711.44
2023-08-15T10:13:54.768Z,101712.06
2023-08-15T10:16:22.919Z,101718.34
2023-08-15T10:18:55.614Z,101715.75
2023-08-15T10:21:24.571Z,101735.94
2023-08-15T10:23:55.146Z,101719.22
2023-08-15T10:26:23.663Z,101720.22
2023-08-15T10:28:51.716Z,101721.38
2023-08-15T10:31:39.204Z,101722.09
2023-08-15T10:34:10.989Z,101720.00
2023-08-15T10:36:41.935Z,101717.00
2023-08-15T10:39:10.079Z,101728.25
2023-08-15T10:41:38.241Z,101727.84
2023-08-15T10:44:07.449Z,101730.44
2023-08-15T10:46:36.849Z,101730.47
2023-08-15T10:49:10.355Z,101731.69
2023-08-15T10:51:39.281Z,101720.44
2023-08-15T10:54:08.649Z,101723.50
2023-08-15T10:56:38.008Z,101719.53
2023-08-15T10:59:09.027Z,101719.28
2023-08-15T11:01:38.029Z,101719.50
2023-08-15T11:04:09.517Z,101714.41
2023-08-15T11:06:43.111Z,101716.91
2023-08-15T11:09:12.333Z,101730.81
2023-08-15T11:11:40.795Z,101726.31
2023-08-15T11:14:16.587Z,101732.66
2023-08-15T11:16:44.974Z,101729.03
2023-08-15T11:19:16.536Z,101725.47
2023-08-15T11:21:44.854Z,101723.53
2023-08-15T11:24:12.956Z,101723.66
2023-08-15T11:26:42.710Z,101724.78
2023-08-15T11:29:12.428Z,101727.97
2023-08-15T11:31:40.749Z,101724.09
2023-08-15T11:34:09.568Z,101728.47
2023-08-15T11:36:39.845Z,101713.47
2023-08-15T11:39:08.041Z,101721.44
2023-08-15T11:41:36.803Z,101728.91
2023-08-15T11:44:06.085Z,101719.66
2023-08-15T11:46:52.657Z,101721.66
2023-08-15T11:49:25.189Z,101726.34
2023-08-15T11:52:03.655Z,101728.81
2023-08-15T11:54:31.845Z,101737.13
2023-08-15T11:57:00.440Z,101736.13
2023-08-15T11:59:28.727Z,101727.47
2023-08-15T12:01:56.959Z,101729.63
2023-08-15T12:04:25.973Z,101722.66
2023-08-15T12:06:58.302Z,101725.19
2023-08-15T12:09:30.823Z,101736.84
2023-08-15T12:11:59.324Z,101732.75
2023-08-15T12:14:29.028Z,101725.88
2023-08-15T12:17:03.902Z,101732.56
2023-08-15T12:19:32.111Z,101735.38
2023-08-15T12:22:01.827Z,101741.19
2023-08-15T12:24:30.015Z,101749.16
2023-08-15T12:26:58.510Z,101739.75
2023-08-15T12:30:10.694Z,101744.63
2023-08-15T12:32:13.946Z,101739.91
2023-08-15T12:34:44.167Z,101741.44
2023-08-15T12:37:13.694Z,101746.47
2023-08-15T12:39:41.859Z,101747.44
2023-08-15T12:42:10.074Z,101743.03
2023-08-15T12:44:39.071Z,101740.78
2023-08-15T12:47:07.519Z,101745.53
2023-08-15T12:49:35.903Z,101737.72
2023-08-15T12:52:04.644Z,101739.28
2023-08-15T12:54:34.285Z,101739.09
2023-08-15T12:57:03.223Z,101745.13
2023-08-15T12:59:31.951Z,101749.50
2023-08-15T13:02:00.023Z,101744.28
2023-08-15T13:04:28.264Z,101746.84
2023-08-15T13:06:56.422Z,101740.28
2023-08-15T13:09:24.621Z,101750.13
2023-08-15T13:11:54.584Z,101752.53
2023-08-15T13:14:31.092Z,101741.66
2023-08-15T13:17:02.999Z,101743.22
2023-08-15T13:19:31.473Z,101744.22
2023-08-15T13:22:00.354Z,101750.81
2023-08-15T13:24:30.444Z,101758.53
2023-08-15T13:26:59.997Z,101751.00
2023-08-15T13:29:29.087Z,101760.13
2023-08-15T13:31:57.532Z,101757.75
2023-08-15T13:34:26.398Z,101752.63
2023-08-15T13:36:54.423Z,101760.00
2023-08-15T13:39:22.458Z,101756.22
2023-08-15T13:41:50.540Z,101755.41
2023-08-15T13:44:20.189Z,101754.53
2023-08-15T13:46:48.908Z,101758.28
2023-08-15T13:49:17.045Z,101755.72
2023-08-15T13:51:45.118Z,101754.72
2023-08-15T13:54:13.460Z,101753.50
2023-08-15T13:56:41.511Z,101759.47
2023-08-15T13:59:09.644Z,101749.31
2023-08-15T14:01:39.495Z,101749.63
2023-08-15T14:04:08.853Z,101745.94
2023-08-15T14:06:36.908Z,101752.59
2023-08-15T14:09:06.195Z,101755.03
2023-08-15T14:11:34.161Z,101751.50
2023-08-15T14:14:02.521Z,101753.34
2023-08-15T14:16:30.558Z,101761.56
2023-08-15T14:19:00.345Z,101754.97
2023-08-15T14:21:28.918Z,101743.72
2023-08-15T14:23:58.149Z,101758.25
2023-08-15T14:26:26.722Z,101758.16
2023-08-15T14:28:56.303Z,101763.41
2023-08-15T14:31:24.791Z,101762.22
2023-08-15T14:33:53.253Z,101762.59
2023-08-15T14:36:23.519Z,101762.97
2023-08-15T14:38:52.194Z,101772.78
2023-08-15T14:41:20.667Z,101769.78
2023-08-15T14:43:48.695Z,101765.75
2023-08-15T14:46:16.833Z,101775.56
2023-08-15T14:48:44.872Z,101775.91
2023-08-15T14:51:13.420Z,101774.38
2023-08-15T14:53:43.115Z,101777.22
2023-08-15T14:56:11.144Z,101775.28
2023-08-15T14:58:39.147Z,101785.91
2023-08-15T15:01:08.415Z,101784.47
2023-08-15T15:03:36.649Z,101792.38
2023-08-15T15:06:05.326Z,101800.84
2023-08-15T15:08:33.641Z,101792.00
2023-08-15T15:11:04.797Z,101792.84
2023-08-15T15:13:33.672Z,101783.56
2023-08-15T15:16:01.891Z,101794.53
2023-08-15T15:18:30.844Z,101795.66
2023-08-15T15:20:59.589Z,101798.19
2023-08-15T15:23:29.889Z,101794.13
2023-08-15T15:25:57.856Z,101797.72
2023-08-15T15:28:27.224Z,101805.34
2023-08-15T15:30:58.421Z,101790.13
2023-08-15T15:33:27.838Z,101793.44
2023-08-15T15:35:57.394Z,101794.53
2023-08-15T15:38:25.837Z,101805.50
2023-08-15T15:40:53.919Z,101802.03
2023-08-15T15:43:22.499Z,101802.25
2023-08-15T15:45:52.113Z,101804.50
2023-08-15T15:48:20.123Z,101801.38
2023-08-15T15:50:48.599Z,101798.28
2023-08-15T15:53:16.840Z,101801.19
2023-08-15T15:55:45.095Z,101808.72
2023-08-15T15:58:13.253Z,101812.19
2023-08-15T16:00:41.368Z,101810.16
2023-08-15T16:03:11.234Z,101814.00
2023-08-15T16:05:39.854Z,101802.81
2023-08-15T16:08:08.872Z,101814.88
2023-08-15T16:10:41.700Z,101814.47
2023-08-15T16:13:09.730Z,101809.28
2023-08-15T16:15:38.055Z,101811.63
2023-08-15T16:18:06.913Z,101817.97
2023-08-15T16:20:36.409Z,101822.25
2023-08-15T16:23:04.515Z,101824.91
2023-08-15T16:25:32.714Z,101826.94
2023-08-15T16:28:00.923Z,101832.09
2023-08-15T16:30:29.195Z,101838.97
2023-08-15T16:32:57.366Z,101830.47
2023-08-15T16:35:25.683Z,101837.84
2023-08-15T16:37:55.893Z,101840.59
2023-08-15T16:40:25.774Z,101851.84
2023-08-15T16:42:56.807Z,101843.56
2023-08-15T16:45:25.135Z,101850.78
2023-08-15T16:47:53.627Z,101842.03
2023-08-15T16:50:21.985Z,101845.41
2023-08-15T16:52:50.153Z,101845.78
2023-08-15T16:55:20.060Z,101835.81
2023-08-15T16:57:48.661Z,101845.31
2023-08-15T17:00:18.075Z,101841.44
2023-08-15T17:02:46.818Z,101840.53
2023-08-15T17:05:15.237Z,101850.41
2023-08-15T17:07:44.574Z,101841.94
2023-08-15T17:10:14.238Z,101836.47
2023-08-15T17:12:43.825Z,101839.00
2023-08-15T17:15:12.583Z,101840.94
2023-08-15T17:17:41.046Z,101838.47
2023-08-15T17:20:11.077Z,101844.94
2023-08-15T17:22:39.338Z,101843.97
2023-08-15T17:25:09.100Z,101850.22
2023-08-15T17:27:38.466Z,101844.88
2023-08-15T17:30:09.496Z,101845.13
2023-08-15T17:32:37.636Z,101843.59
2023-08-15T17:35:06.453Z,101845.56
2023-08-15T17:37:34.456Z,101848.81
2023-08-15T17:40:02.965Z,101844.25
2023-08-15T17:42:31.085Z,101846.66
2023-08-15T17:44:59.140Z,101852.56
2023-08-15T17:47:28.915Z,101853.44
2023-08-15T17:49:57.403Z,101856.22
2023-08-15T17:52:25.424Z,101851.53
2023-08-15T17:54:53.491Z,101861.19
2023-08-15T17:57:21.631Z,101865.47
2023-08-15T17:59:50.854Z,101863.81
2023-08-15T18:02:19.120Z,101867.25
2023-08-15T18:04:51.613Z,101861.31
2023-08-15T18:07:20.116Z,101866.72
2023-08-15T18:09:48.381Z,101867.63
2023-08-15T18:12:16.445Z,101855.91
2023-08-15T18:14:44.477Z,101870.28
2023-08-15T18:17:12.405Z,101869.44
2023-08-15T18:19:40.374Z,101873.81
2023-08-15T18:22:11.576Z,101873.81
2023-08-15T18:24:41.997Z,101876.75
2023-08-15T18:27:11.532Z,101877.09
2023-08-15T18:29:40.439Z,101881.78
2023-08-15T18:32:09.034Z,101879.78
2023-08-15T18:34:37.258Z,101878.69
2023-08-15T18:37:05.721Z,101878.66
2023-08-15T18:39:35.277Z,101876.19
2023-08-15T18:42:03.462Z,101887.59
2023-08-15T18:44:31.492Z,101890.63
2023-08-15T18:47:00.811Z,101881.25
2023-08-15T18:49:28.818Z,101891.47
2023-08-15T18:51:56.964Z,101877.88
2023-08-15T18:54:25.217Z,101890.91
2023-08-15T18:56:54.739Z,101885.28
2023-08-15T18:59:24.784Z,101896.59
2023-08-15T19:01:53.138Z,101895.34
2023-08-15T19:04:21.326Z,101894.84
2023-08-15T19:06:49.579Z,101892.47
2023-08-15T19:09:18.172Z,101900.94
2023-08-15T19:11:46.184Z,101904.50
2023-08-15T19:14:16.229Z,101912.22
2023-08-15T19:16:44.271Z,101915.72
2023-08-15T19:19:12.489Z,101913.41
2023-08-15T19:21:40.690Z,101920.28
2023-08-15T19:24:09.135Z,101922.56
2023-08-15T19:26:37.140Z,101921.16
2023-08-15T19:29:05.460Z,101928.72
2023-08-15T19:31:35.966Z,101931.00
2023-08-15T19:34:04.909Z,101933.94
2023-08-15T19:36:33.033Z,101928.84
2023-08-15T19:39:01.187Z,101924.59
2023-08-15T19:41:29.471Z,101930.34
2023-08-15T19:43:59.768Z,101927.84
2023-08-15T19:46:27.916Z,101922.94
2023-08-15T19:48:57.341Z,101937.66
2023-08-15T19:51:25.743Z,101939.72
2023-08-15T19:53:54.369Z,101932.69
2023-08-15T19:56:23.237Z,101933.19
2023-08-15T19:58:51.496Z,101948.47
2023-08-15T20:01:19.554Z,101952.34
2023-08-15T20:03:47.492Z,101960.66
2023-08-15T20:06:17.211Z,101953.63
2023-08-15T20:11:12.867Z,101967.75
2023-08-15T20:13:40.993Z,101967.13
2023-08-15T20:16:09.041Z,101962.03
2023-08-15T20:18:37.519Z,101977.38
2023-08-15T20:21:05.811Z,101973.13
2023-08-15T20:23:35.152Z,101976.34
2023-08-15T20:26:03.463Z,101982.13
2023-08-15T20:28:31.588Z,101981.56
2023-08-15T20:30:59.640Z,101986.38
2023-08-15T20:33:27.853Z,101981.41
2023-08-15T20:35:55.997Z,101982.69
2023-08-15T20:38:24.119Z,101982.09
2023-08-15T20:40:53.870Z,101977.97
2023-08-15T20:43:21.888Z,101972.31
2023-08-15T20:45:52.558Z,101975.97
2023-08-15T20:48:21.169Z,101976.94
2023-08-15T20:50:49.560Z,101977.78
2023-08-15T20:53:17.567Z,101973.38
2023-08-15T20:55:45.869Z,101972.38
2023-08-15T20:58:15.193Z,101965.97
2023-08-15T21:00:46.082Z,101983.41
2023-08-15T21:03:14.879Z,101980.88
2023-08-15T21:05:44.235Z,101992.44
2023-08-15T21:08:12.721Z,101989.88
2023-08-15T21:10:41.070Z,101988.22
2023-08-15T21:13:09.363Z,101994.78
2023-08-15T21:15:39.086Z,101990.56
2023-08-15T21:18:07.516Z,102001.34
2023-08-15T21:20:35.447Z,101998.94
2023-08-15T21:23:04.187Z,101999.22
2023-08-15T21:25:32.199Z,101997.41
2023-08-15T21:28:00.318Z,102002.13
2023-08-15T21:30:28.364Z,102001.50
2023-08-15T21:32:57.866Z,102011.81
2023-08-15T21:35:25.864Z,102009.38
2023-08-15T21:37:53.943Z,102013.19
2023-08-15T21:40:22.581Z,102008.91
2023-08-15T21:42:50.841Z,102012.66
2023-08-15T21:45:19.916Z,102009.28
2023-08-15T21:47:48.527Z,102014.88
2023-08-15T21:52:46.490Z,102016.03
2023-08-15T21:55:16.198Z,102027.59
2023-08-15T21:57:44.264Z,102022.19
2023-08-15T22:00:13.680Z,102021.63
2023-08-15T22:02:42.123Z,102025.25
2023-08-15T22:05:10.515Z,102025.53
2023-08-15T22:07:39.953Z,102016.97
2023-08-15T22:10:09.173Z,102018.38
2023-08-15T22:12:37.109Z,102016.06
2023-08-15T22:15:06.002Z,102023.44
2023-08-15T22:17:45.190Z,102020.09
2023-08-15T22:20:14.585Z,102029.38
2023-08-15T22:22:44.054Z,102028.78
2023-08-15T22:25:12.248Z,102020.16
2023-08-15T22:27:40.161Z,102021.91
2023-08-15T22:30:09.510Z,102021.25
2023-08-15T22:32:37.548Z,102017.75
2023-08-15T22:35:06.100Z,102018.72
2023-08-15T22:37:34.205Z,102017.16
2023-08-15T22:40:04.961Z,102010.66
2023-08-15T22:42:33.025Z,102027.84
2023-08-15T22:45:01.293Z,102024.91
2023-08-15T22:47:29.402Z,102023.97
2023-08-15T22:49:57.557Z,102024.66
2023-08-15T22:52:25.969Z,102028.84
2023-08-15T22:54:54.889Z,102031.13
2023-08-15T22:57:24.408Z,102030.34
2023-08-15T22:59:52.497Z,102031.38
2023-08-15T23:02:20.465Z,102028.78
2023-08-15T23:04:48.388Z,102026.16
2023-08-15T23:07:16.310Z,102029.81
2023-08-15T23:09:44.296Z,102029.03
2023-08-15T23:12:12.261Z,102043.44
2023-08-15T23:14:41.671Z,102038.03
2023-08-15T23:17:09.636Z,102032.03
2023-08-15T23:19:37.610Z,102047.00
2023-08-15T23:22:05.753Z,102044.41
2023-08-15T23:24:33.701Z,102053.50
2023-08-15T23:27:02.727Z,102038.53
2023-08-15T23:29:31.390Z,102037.75
2023-08-15T23:32:03.723Z,102023.00
2023-08-15T23:34:31.691Z,102024.75
2023-08-15T23:36:59.614Z,102030.91
2023-08-15T23:39:27.546Z,102042.69
2023-08-15T23:41:55.509Z,102042.16
2023-08-15T23:44:23.529Z,102040.84
2023-08-15T23:46:51.826Z,102027.78
2023-08-15T23:49:21.290Z,102038.94
2023-08-15T23:51:49.321Z,102039.25
2023-08-15T23:54:17.232Z,102035.94
2023-08-15T23:56:45.184Z,102035.25
2023-08-15T23:59:13.133Z,102032.75
